createdAt,value
2017-05-24T00:00:04.997Z,13.89
2017-05-24T00:01:05.324Z,13.97
2017-05-24T00:02:05.350Z,13.87
2017-05-24T00:03:05.374Z,13.81
2017-05-24T00:04:20.013Z,13.77
2017-05-24T00:05:20.037Z,13.69
2017-05-24T00:06:05.446Z,13.7
2017-05-24T00:07:05.469Z,13.66
2017-05-24T00:08:20.111Z,13.66
2017-05-24T00:09:05.517Z,13.66
2017-05-24T00:10:05.541Z,13.57
2017-05-24T00:11:05.565Z,13.55
2017-05-24T00:12:05.286Z,13.55
2017-05-24T00:13:05.613Z,13.49
2017-05-24T00:14:05.638Z,13.51
2017-05-24T00:15:05.357Z,13.48
2017-05-24T00:18:05.734Z,13.57
2017-05-24T00:19:20.375Z,13.39
2017-05-24T00:20:05.779Z,13.33
2017-05-24T00:21:20.473Z,13.46
2017-05-24T00:22:05.827Z,13.54
2017-05-24T00:23:05.856Z,13.38
2017-05-24T00:24:20.495Z,13.42
2017-05-24T00:25:05.596Z,13.29
2017-05-24T00:26:05.924Z,13.38
2017-05-24T00:27:05.646Z,13.48
2017-05-24T00:28:05.974Z,13.51
2017-05-24T00:29:05.692Z,13.52
2017-05-24T00:30:06.018Z,13.54
2017-05-24T00:31:06.047Z,13.48
2017-05-24T00:32:05.766Z,13.46
2017-05-24T00:34:06.118Z,13.36
2017-05-24T00:35:20.816Z,13.29
2017-05-24T00:36:06.163Z,13.36
2017-05-24T00:37:06.189Z,13.33
2017-05-24T00:38:06.215Z,13.33
2017-05-24T00:39:05.931Z,13.38
2017-05-24T00:40:20.875Z,13.32
2017-05-24T00:41:06.281Z,13.41
2017-05-24T00:42:06.002Z,13.42
2017-05-24T00:43:06.332Z,13.32
2017-05-24T00:44:06.354Z,13.46
2017-05-24T00:45:06.377Z,13.36
2017-05-24T00:46:06.401Z,13.38
2017-05-24T00:47:06.119Z,13.36
2017-05-24T00:48:06.448Z,13.26
2017-05-24T00:49:06.169Z,13.15
2017-05-24T00:50:06.499Z,13.2
2017-05-24T00:51:06.517Z,13.12
2017-05-24T00:52:06.543Z,13.12
2017-05-24T00:53:06.567Z,13.14
2017-05-24T00:54:06.593Z,13.05
2017-05-24T00:55:21.231Z,13.04
2017-05-24T00:56:06.640Z,13.07
2017-05-24T00:57:06.659Z,13.05
2017-05-24T00:58:06.689Z,13.04
2017-05-24T00:59:06.710Z,12.93
2017-05-24T01:00:06.733Z,12.9
2017-05-24T01:01:06.755Z,12.89
2017-05-24T01:02:06.778Z,12.83
2017-05-24T01:03:06.807Z,12.72
2017-05-24T01:04:06.525Z,12.77
2017-05-24T01:06:06.872Z,12.79
2017-05-24T01:07:21.513Z,12.77
2017-05-24T01:08:06.922Z,12.82
2017-05-24T01:09:06.943Z,12.83
2017-05-24T01:10:06.966Z,12.86
2017-05-24T01:11:06.991Z,12.87
2017-05-24T01:12:07.013Z,12.85
2017-05-24T01:13:07.049Z,12.87
2017-05-24T01:14:07.061Z,12.86
2017-05-24T01:15:07.085Z,12.9
2017-05-24T01:16:07.106Z,13.03
2017-05-24T01:17:07.133Z,12.87
2017-05-24T01:18:07.153Z,12.86
2017-05-24T01:20:21.821Z,12.9
2017-05-24T01:21:06.919Z,12.83
2017-05-24T01:22:06.943Z,12.85
2017-05-24T01:23:21.887Z,12.92
2017-05-24T01:24:21.910Z,12.85
2017-05-24T01:25:07.320Z,12.77
2017-05-24T01:26:07.343Z,12.75
2017-05-24T01:27:21.980Z,12.79
2017-05-24T01:28:07.386Z,12.71
2017-05-24T01:29:07.110Z,12.78
2017-05-24T01:30:07.434Z,12.68
2017-05-24T01:31:07.458Z,12.64
2017-05-24T01:32:07.177Z,12.53
2017-05-24T01:33:07.509Z,12.59
2017-05-24T01:34:06.919Z,12.47
2017-05-24T01:35:07.247Z,12.46
2017-05-24T01:36:07.575Z,12.45
2017-05-24T01:37:07.295Z,12.49
2017-05-24T01:38:07.317Z,12.46
2017-05-24T01:39:07.342Z,12.45
2017-05-24T01:40:07.668Z,12.42
2017-05-24T01:41:07.384Z,12.35
2017-05-24T01:42:07.410Z,12.37
2017-05-24T01:43:22.354Z,12.41
2017-05-24T01:44:07.458Z,12.39
2017-05-24T01:45:07.176Z,12.31
2017-05-24T01:46:07.807Z,12.37
2017-05-24T01:47:07.830Z,12.37
2017-05-24T01:48:07.852Z,12.38
2017-05-24T01:49:07.877Z,12.24
2017-05-24T01:50:07.898Z,12.21
2017-05-24T01:51:07.924Z,12.28
2017-05-24T01:52:07.943Z,12.31
2017-05-24T01:53:07.971Z,12.27
2017-05-24T01:54:07.991Z,12.23
2017-05-24T01:55:08.015Z,12.27
2017-05-24T01:56:22.654Z,12.32
2017-05-24T01:57:08.060Z,12.24
2017-05-24T01:58:08.082Z,12.32
2017-05-24T01:59:22.727Z,12.37
2017-05-24T02:00:08.129Z,12.37
2017-05-24T02:01:08.151Z,12.39
2017-05-24T02:02:07.873Z,12.46
2017-05-24T02:03:08.196Z,12.49
2017-05-24T02:04:08.222Z,12.49
2017-05-24T02:05:08.243Z,12.49
2017-05-24T02:08:08.315Z,12.34
2017-05-24T02:09:08.339Z,12.31
2017-05-24T02:10:08.056Z,12.37
2017-05-24T02:11:08.385Z,12.35
2017-05-24T02:12:08.102Z,12.37
2017-05-24T02:13:08.429Z,12.37
2017-05-24T02:14:08.453Z,12.41
2017-05-24T02:15:22.790Z,12.38
2017-05-24T02:16:08.499Z,12.39
2017-05-24T02:18:08.241Z,12.42
2017-05-24T02:19:08.567Z,12.52
2017-05-24T02:21:08.612Z,12.46
2017-05-24T02:22:08.636Z,12.49
2017-05-24T02:23:08.357Z,12.47
2017-05-24T02:24:08.684Z,12.49
2017-05-24T02:25:08.705Z,12.45
2017-05-24T02:26:08.727Z,12.49
2017-05-24T02:27:08.448Z,12.46
2017-05-24T02:28:08.776Z,12.34
2017-05-24T02:29:08.802Z,12.37
2017-05-24T02:30:23.438Z,12.45
2017-05-24T02:31:08.558Z,12.35
2017-05-24T02:32:08.562Z,12.46
2017-05-24T02:34:08.911Z,12.62
2017-05-24T02:35:08.934Z,12.5
2017-05-24T02:36:08.653Z,12.53
2017-05-24T02:37:08.979Z,12.59
2017-05-24T02:40:09.049Z,12.57
2017-05-24T02:41:09.072Z,12.52
2017-05-24T02:42:09.105Z,12.54
2017-05-24T02:43:23.429Z,12.57
2017-05-24T02:44:09.140Z,12.52
2017-05-24T02:45:09.166Z,12.57
2017-05-24T02:46:09.187Z,12.57
2017-05-24T02:47:08.907Z,12.52
2017-05-24T02:48:09.233Z,12.5
2017-05-24T02:49:09.266Z,12.57
2017-05-24T02:50:08.671Z,12.6
2017-05-24T02:51:09.301Z,12.53
2017-05-24T02:52:09.021Z,12.59
2017-05-24T02:53:09.046Z,12.57
2017-05-24T02:54:09.391Z,12.54
2017-05-24T02:55:09.391Z,12.67
2017-05-24T02:56:09.112Z,12.67
2017-05-24T02:57:09.439Z,12.64
2017-05-24T02:58:09.459Z,12.67
2017-05-24T02:59:09.483Z,12.64
2017-05-24T03:00:09.509Z,12.64
2017-05-24T03:01:09.531Z,12.7
2017-05-24T03:02:24.169Z,12.68
2017-05-24T03:03:09.276Z,12.67
2017-05-24T03:04:09.603Z,12.68
2017-05-24T03:05:09.621Z,12.64
2017-05-24T03:06:09.660Z,12.54
2017-05-24T03:07:09.363Z,12.68
2017-05-24T03:08:09.389Z,12.72
2017-05-24T03:09:09.713Z,12.67
2017-05-24T03:11:09.457Z,12.74
2017-05-24T03:12:09.783Z,12.78
2017-05-24T03:13:09.809Z,12.68
2017-05-24T03:14:09.834Z,12.7
2017-05-24T03:15:09.547Z,12.64
2017-05-24T03:16:24.489Z,12.65
2017-05-24T03:17:09.591Z,12.65
2017-05-24T03:18:24.537Z,12.79
2017-05-24T03:19:09.945Z,12.83
2017-05-24T03:20:09.661Z,12.75
2017-05-24T03:21:09.683Z,12.85
2017-05-24T03:22:10.011Z,12.82
2017-05-24T03:23:09.731Z,12.78
2017-05-24T03:24:09.452Z,12.86
2017-05-24T03:25:10.083Z,12.82
2017-05-24T03:26:09.799Z,12.86
2017-05-24T03:27:10.122Z,12.9
2017-05-24T03:28:09.848Z,12.74
2017-05-24T03:29:09.869Z,12.85
2017-05-24T03:30:10.200Z,12.87
2017-05-24T03:31:10.216Z,12.9
2017-05-24T03:32:09.634Z,12.89
2017-05-24T03:33:10.263Z,12.9
2017-05-24T03:34:24.901Z,12.89
2017-05-24T03:35:10.307Z,12.93
2017-05-24T03:36:10.028Z,12.85
2017-05-24T03:37:10.354Z,12.74
2017-05-24T03:38:10.381Z,12.72
2017-05-24T03:39:10.399Z,12.85
2017-05-24T03:40:10.118Z,12.93
2017-05-24T03:42:10.171Z,12.95
2017-05-24T03:43:10.190Z,12.89
2017-05-24T03:44:10.216Z,12.87
2017-05-24T03:45:10.537Z,12.96
2017-05-24T03:46:25.178Z,13.14
2017-05-24T03:47:10.585Z,13.04
2017-05-24T03:48:10.002Z,13.23
2017-05-24T03:49:10.327Z,13.26
2017-05-24T03:50:25.269Z,13.22
2017-05-24T03:51:10.373Z,13.2
2017-05-24T03:52:10.447Z,13.17
2017-05-24T03:53:10.726Z,13.22
2017-05-24T03:54:10.755Z,13.36
2017-05-24T03:55:10.768Z,13.26
2017-05-24T03:56:10.790Z,13.23
2017-05-24T03:57:10.816Z,13.15
2017-05-24T04:00:10.885Z,13.2
2017-05-24T04:01:25.221Z,13.17
2017-05-24T04:02:10.627Z,13.2
2017-05-24T04:03:10.651Z,13.19
2017-05-24T04:04:10.676Z,13.28
2017-05-24T04:06:11.025Z,13.14
2017-05-24T04:07:11.045Z,13.14
2017-05-24T04:08:10.767Z,13.03
2017-05-24T04:10:11.115Z,12.92
2017-05-24T04:11:11.140Z,12.9
2017-05-24T04:12:11.161Z,12.9
2017-05-24T04:14:11.212Z,13.03
2017-05-24T04:17:25.894Z,13.01
2017-05-24T04:18:11.299Z,13.07
2017-05-24T04:19:10.721Z,13.19
2017-05-24T04:20:11.041Z,13.11
2017-05-24T04:21:11.368Z,13.15
2017-05-24T04:22:11.089Z,13.15
2017-05-24T04:23:11.417Z,12.97
2017-05-24T04:24:11.440Z,13.1
2017-05-24T04:25:11.460Z,13.03
2017-05-24T04:26:11.485Z,13.1
2017-05-24T04:27:11.505Z,13.15
2017-05-24T04:28:11.534Z,13.12
2017-05-24T04:31:11.598Z,13.11
2017-05-24T04:32:11.622Z,13.01
2017-05-24T04:33:11.650Z,13.15
2017-05-24T04:34:11.672Z,13.2
2017-05-24T04:35:11.690Z,13.23
2017-05-24T04:36:11.717Z,13.25
2017-05-24T04:37:26.354Z,13.26
2017-05-24T04:38:11.458Z,13.25
2017-05-24T04:39:11.784Z,13.25
2017-05-24T04:40:11.808Z,13.15
2017-05-24T04:41:11.831Z,13.12
2017-05-24T04:43:11.874Z,13.2
2017-05-24T04:44:11.897Z,13.14
2017-05-24T04:45:11.919Z,13.19
2017-05-24T04:47:11.664Z,13.22
2017-05-24T04:48:26.606Z,13.22
2017-05-24T04:49:12.023Z,13.17
2017-05-24T04:50:12.037Z,13.22
2017-05-24T04:51:12.058Z,13.23
2017-05-24T04:52:11.778Z,13.14
2017-05-24T04:53:26.720Z,13.17
2017-05-24T04:54:12.127Z,13.17
2017-05-24T04:55:11.847Z,13.22
2017-05-24T04:56:12.174Z,13.33
2017-05-24T04:57:12.197Z,13.17
2017-05-24T04:58:11.918Z,13.32
2017-05-24T04:59:12.239Z,13.32
2017-05-24T05:00:12.265Z,13.33
2017-05-24T05:01:11.984Z,13.33
2017-05-24T05:02:12.005Z,13.39
2017-05-24T05:03:12.035Z,13.22
2017-05-24T05:04:12.661Z,13.19
2017-05-24T05:05:26.997Z,13.19
2017-05-24T05:06:11.798Z,13.19
2017-05-24T05:07:12.428Z,13.17
2017-05-24T05:08:12.456Z,13.17
2017-05-24T05:09:27.091Z,13.04
2017-05-24T05:10:12.493Z,13.19
2017-05-24T05:11:12.213Z,13.25
2017-05-24T05:12:12.240Z,13.19
2017-05-24T05:13:12.262Z,13.22
2017-05-24T05:14:12.287Z,13.2
2017-05-24T05:15:12.306Z,13.23
2017-05-24T05:16:12.633Z,13.19
2017-05-24T05:17:12.351Z,13.22
2017-05-24T05:18:26.994Z,13.32
2017-05-24T05:19:27.321Z,13.38
2017-05-24T05:20:12.431Z,13.45
2017-05-24T05:21:12.446Z,13.51
2017-05-24T05:22:12.781Z,13.48
2017-05-24T05:23:12.489Z,13.55
2017-05-24T05:24:12.820Z,13.46
2017-05-24T05:25:27.455Z,13.33
2017-05-24T05:26:12.862Z,13.3
2017-05-24T05:27:12.889Z,13.29
2017-05-24T05:28:12.608Z,13.46
2017-05-24T05:30:12.955Z,13.51
2017-05-24T05:31:12.978Z,13.48
2017-05-24T05:33:13.023Z,13.48
2017-05-24T05:34:12.744Z,13.51
2017-05-24T05:36:12.789Z,13.52
2017-05-24T05:37:27.734Z,13.52
2017-05-24T05:38:13.143Z,13.44
2017-05-24T05:39:13.166Z,13.6
2017-05-24T05:40:27.802Z,13.59
2017-05-24T05:41:13.212Z,13.51
2017-05-24T05:42:13.233Z,13.59
2017-05-24T05:43:13.257Z,13.59
2017-05-24T05:45:13.303Z,13.67
2017-05-24T05:46:13.020Z,13.52
2017-05-24T05:47:13.409Z,13.64
2017-05-24T05:49:13.394Z,13.54
2017-05-24T05:50:13.116Z,13.51
2017-05-24T05:51:13.442Z,13.48
2017-05-24T05:52:13.487Z,13.39
2017-05-24T05:53:13.488Z,13.54
2017-05-24T05:54:13.210Z,13.51
2017-05-24T05:55:13.532Z,13.55
2017-05-24T05:56:13.560Z,13.46
2017-05-24T05:57:13.581Z,13.55
2017-05-24T05:58:13.605Z,13.52
2017-05-24T05:59:13.627Z,13.48
2017-05-24T06:00:13.650Z,13.48
2017-05-24T06:01:13.672Z,13.51
2017-05-24T06:02:13.696Z,13.44
2017-05-24T06:03:13.421Z,13.51
2017-05-24T06:04:13.490Z,13.48
2017-05-24T06:06:13.790Z,13.48
2017-05-24T06:07:28.429Z,13.52
2017-05-24T06:08:13.836Z,13.41
2017-05-24T06:09:28.472Z,13.45
2017-05-24T06:10:13.577Z,13.42
2017-05-24T06:11:13.904Z,13.44
2017-05-24T06:12:28.541Z,13.46
2017-05-24T06:13:13.950Z,13.46
2017-05-24T06:14:13.977Z,13.36
2017-05-24T06:15:13.994Z,13.38
2017-05-24T06:16:13.716Z,13.41
2017-05-24T06:17:14.045Z,13.36
2017-05-24T06:19:14.090Z,13.33
2017-05-24T06:21:14.134Z,13.33
2017-05-24T06:23:28.796Z,13.19
2017-05-24T06:24:14.205Z,13.11
2017-05-24T06:25:14.227Z,13.23
2017-05-24T06:26:14.248Z,13.15
2017-05-24T06:27:14.272Z,13.22
2017-05-24T06:28:28.911Z,13.17
2017-05-24T06:29:14.321Z,13.19
2017-05-24T06:30:14.037Z,13.23
2017-05-24T06:31:14.364Z,13.15
2017-05-24T06:32:14.387Z,13.26
2017-05-24T06:33:14.410Z,13.32
2017-05-24T06:34:14.436Z,13.33
2017-05-24T06:35:14.457Z,13.33
2017-05-24T06:36:14.478Z,13.33
2017-05-24T06:38:14.525Z,13.38
2017-05-24T06:39:14.550Z,13.51
2017-05-24T06:40:14.573Z,13.49
2017-05-24T06:41:14.594Z,13.49
2017-05-24T06:42:14.620Z,13.46
2017-05-24T06:43:14.639Z,13.51
2017-05-24T06:44:29.277Z,13.6
2017-05-24T06:45:14.381Z,13.63
2017-05-24T06:46:14.709Z,13.66
2017-05-24T06:47:14.429Z,13.62
2017-05-24T06:48:14.754Z,13.89
2017-05-24T06:49:14.476Z,13.82
2017-05-24T06:50:14.801Z,14
2017-05-24T06:51:14.825Z,13.97
2017-05-24T06:52:14.846Z,14.04
2017-05-24T06:53:14.873Z,14.04
2017-05-24T06:54:14.892Z,14.03
2017-05-24T06:55:14.918Z,14.21
2017-05-24T06:56:14.997Z,14.32
2017-05-24T06:57:14.964Z,14.46
2017-05-24T06:58:14.988Z,14.46
2017-05-24T06:59:15.011Z,14.42
2017-05-24T07:00:29.651Z,14.36
2017-05-24T07:01:15.058Z,14.43
2017-05-24T07:02:15.081Z,14.37
2017-05-24T07:03:15.107Z,14.45
2017-05-24T07:04:15.129Z,14.51
2017-05-24T07:05:14.846Z,14.42
2017-05-24T07:06:15.172Z,14.5
2017-05-24T07:08:15.227Z,14.7
2017-05-24T07:09:14.941Z,14.89
2017-05-24T07:10:14.963Z,14.98
2017-05-24T07:11:15.291Z,15.09
2017-05-24T07:12:15.314Z,15.44
2017-05-24T07:13:15.035Z,15.8
2017-05-24T07:14:15.060Z,15.9
2017-05-24T07:15:30.003Z,15.68
2017-05-24T07:16:15.413Z,15.96
2017-05-24T07:17:15.435Z,16.28
2017-05-24T07:18:15.460Z,16.27
2017-05-24T07:19:15.483Z,16.45
2017-05-24T07:20:15.508Z,16.34
2017-05-24T07:21:15.535Z,16.43
2017-05-24T07:22:15.555Z,16.39
2017-05-24T07:23:15.581Z,16.48
2017-05-24T07:24:15.607Z,16.42
2017-05-24T07:25:29.944Z,16.46
2017-05-24T07:26:15.663Z,16.56
2017-05-24T07:27:15.690Z,16.43
2017-05-24T07:28:15.703Z,16.34
2017-05-24T07:29:15.731Z,16.31
2017-05-24T07:30:15.448Z,16.31
2017-05-24T07:31:15.780Z,16.31
2017-05-24T07:32:15.800Z,16.04
2017-05-24T07:33:15.827Z,16.21
2017-05-24T07:34:15.849Z,15.89
2017-05-24T07:35:15.877Z,15.72
2017-05-24T07:36:15.904Z,15.64
2017-05-24T07:38:15.970Z,16.2
2017-05-24T07:40:15.997Z,16.2
2017-05-24T07:41:16.023Z,16.17
2017-05-24T07:42:15.748Z,16.12
2017-05-24T07:43:15.771Z,15.97
2017-05-24T07:44:16.099Z,16.07
2017-05-24T07:45:16.121Z,16.09
2017-05-24T07:46:16.146Z,16.2
2017-05-24T07:47:30.788Z,16.35
2017-05-24T07:48:16.196Z,16.41
2017-05-24T07:49:16.223Z,16.21
2017-05-24T07:50:16.246Z,16.17
2017-05-24T07:51:16.272Z,16.21
2017-05-24T07:52:16.296Z,16.2
2017-05-24T07:53:16.319Z,16.05
2017-05-24T07:54:16.040Z,15.86
2017-05-24T07:56:16.090Z,15.75
2017-05-24T07:57:16.113Z,15.67
2017-05-24T07:58:16.441Z,15.89
2017-05-24T07:59:16.498Z,15.96
2017-05-24T08:00:16.492Z,15.86
2017-05-24T08:01:31.132Z,15.93
2017-05-24T08:02:16.541Z,15.9
2017-05-24T08:03:31.180Z,15.9
2017-05-24T08:04:16.593Z,15.74
2017-05-24T08:05:16.614Z,15.82
2017-05-24T08:06:16.640Z,16.01
2017-05-24T08:07:16.664Z,15.9
2017-05-24T08:08:16.686Z,15.84
2017-05-24T08:09:16.713Z,16
2017-05-24T08:10:16.739Z,16.12
2017-05-24T08:11:16.763Z,16.11
2017-05-24T08:12:16.487Z,16.21
2017-05-24T08:13:16.819Z,16.31
2017-05-24T08:14:16.837Z,16.27
2017-05-24T08:15:16.859Z,16.25
2017-05-24T08:16:16.881Z,16.09
2017-05-24T08:17:16.909Z,15.97
2017-05-24T08:18:16.931Z,15.84
2017-05-24T08:19:31.577Z,15.84
2017-05-24T08:20:16.979Z,15.83
2017-05-24T08:21:17.008Z,15.87
2017-05-24T08:22:17.034Z,15.78
2017-05-24T08:23:17.053Z,15.59
2017-05-24T08:24:17.081Z,15.74
2017-05-24T08:26:17.177Z,15.47
2017-05-24T08:27:17.150Z,15.56
2017-05-24T08:28:17.176Z,15.69
2017-05-24T08:29:17.201Z,15.84
2017-05-24T08:30:17.231Z,15.69
2017-05-24T08:31:17.252Z,15.75
2017-05-24T08:32:17.274Z,15.83
2017-05-24T08:33:17.299Z,16.01
2017-05-24T08:34:17.325Z,15.74
2017-05-24T08:35:31.962Z,15.43
2017-05-24T08:36:17.373Z,15.27
2017-05-24T08:37:17.396Z,15.38
2017-05-24T08:38:17.423Z,15.47
2017-05-24T08:39:17.444Z,15.54
2017-05-24T08:40:17.469Z,15.64
2017-05-24T08:42:17.516Z,15.46
2017-05-24T08:43:17.553Z,15.49
2017-05-24T08:44:17.572Z,15.46
2017-05-24T08:46:32.241Z,15.54
2017-05-24T08:47:17.335Z,15.53
2017-05-24T08:48:17.361Z,15.34
2017-05-24T08:49:17.687Z,15.32
2017-05-24T08:50:32.330Z,15.44
2017-05-24T08:51:17.740Z,15.28
2017-05-24T08:52:17.762Z,15.29
2017-05-24T08:53:17.785Z,15.25
2017-05-24T08:54:17.811Z,15.35
2017-05-24T08:56:17.859Z,15.41
2017-05-24T08:57:17.883Z,15.29
2017-05-24T08:58:17.975Z,15.28
2017-05-24T08:59:17.932Z,15.29
2017-05-24T09:00:17.964Z,15.41
2017-05-24T09:01:17.679Z,15.39
2017-05-24T09:02:17.705Z,15.29
2017-05-24T09:03:32.642Z,15.36
2017-05-24T09:04:18.051Z,15.27
2017-05-24T09:05:18.074Z,15.32
2017-05-24T09:06:18.099Z,15.38
2017-05-24T09:07:18.128Z,15.34
2017-05-24T09:08:18.145Z,15.5
2017-05-24T09:10:17.891Z,15.72
2017-05-24T09:11:18.226Z,15.74
2017-05-24T09:12:17.636Z,15.76
2017-05-24T09:13:18.271Z,15.47
2017-05-24T09:15:18.011Z,15.76
2017-05-24T09:16:18.369Z,15.87
2017-05-24T09:17:32.681Z,16.04
2017-05-24T09:18:33.006Z,16.09
2017-05-24T09:19:18.421Z,16.3
2017-05-24T09:20:18.136Z,16.45
2017-05-24T09:21:18.463Z,16.67
2017-05-24T09:22:33.107Z,16.97
2017-05-24T09:23:18.511Z,16.96
2017-05-24T09:24:18.538Z,16.81
2017-05-24T09:25:18.256Z,16.98
2017-05-24T09:26:18.585Z,17.07
2017-05-24T09:27:18.610Z,16.93
2017-05-24T09:28:18.333Z,17.08
2017-05-24T09:29:18.358Z,16.85
2017-05-24T09:31:18.713Z,16.7
2017-05-24T09:32:18.729Z,16.78
2017-05-24T09:33:18.763Z,16.73
2017-05-24T09:34:33.398Z,16.52
2017-05-24T09:35:18.806Z,16.39
2017-05-24T09:36:18.831Z,16.25
2017-05-24T09:37:18.855Z,16.31
2017-05-24T09:38:33.503Z,16.41
2017-05-24T09:39:18.906Z,16.42
2017-05-24T09:40:18.929Z,16.3
2017-05-24T09:41:18.954Z,16.14
2017-05-24T09:42:18.980Z,15.86
2017-05-24T09:44:19.030Z,15.9
2017-05-24T09:45:19.057Z,16.05
2017-05-24T09:46:19.077Z,16
2017-05-24T09:47:19.102Z,16.11
2017-05-24T09:48:19.126Z,16.09
2017-05-24T09:49:19.152Z,15.83
2017-05-24T09:50:19.179Z,15.83
2017-05-24T09:51:19.201Z,15.89
2017-05-24T09:52:19.227Z,15.97
2017-05-24T09:53:19.250Z,16
2017-05-24T09:54:33.585Z,16.05
2017-05-24T09:55:19.297Z,15.97
2017-05-24T09:56:19.323Z,15.94
2017-05-24T09:57:19.347Z,16.11
2017-05-24T09:58:19.372Z,16.12
2017-05-24T09:59:19.398Z,16.12
2017-05-24T10:00:19.420Z,16.21
2017-05-24T10:01:19.448Z,16.07
2017-05-24T10:02:19.164Z,15.94
2017-05-24T10:03:19.503Z,15.93
2017-05-24T10:04:19.516Z,15.92
2017-05-24T10:05:19.542Z,15.87
2017-05-24T10:06:19.565Z,15.86
2017-05-24T10:07:19.597Z,15.68
2017-05-24T10:08:19.616Z,15.74
2017-05-24T10:09:19.640Z,15.78
2017-05-24T10:10:34.280Z,15.57
2017-05-24T10:11:19.688Z,15.6
2017-05-24T10:12:19.718Z,15.72
2017-05-24T10:13:19.740Z,15.74
2017-05-24T10:14:19.759Z,15.71
2017-05-24T10:15:19.484Z,15.82
2017-05-24T10:17:19.834Z,15.89
2017-05-24T10:18:19.862Z,16.05
2017-05-24T10:19:19.887Z,16.15
2017-05-24T10:20:19.977Z,16.39
2017-05-24T10:21:34.550Z,16.56
2017-05-24T10:22:34.574Z,16.78
2017-05-24T10:23:19.983Z,16.89
2017-05-24T10:24:20.011Z,17.15
2017-05-24T10:25:34.662Z,17.21
2017-05-24T10:26:20.056Z,17.18
2017-05-24T10:27:20.082Z,17.21
2017-05-24T10:28:19.500Z,17.31
2017-05-24T10:29:20.132Z,17.49
2017-05-24T10:31:20.177Z,17.58
2017-05-24T10:33:19.927Z,17.96
2017-05-24T10:34:20.255Z,17.92
2017-05-24T10:35:20.277Z,17.89
2017-05-24T10:36:20.306Z,17.86
2017-05-24T10:37:34.946Z,17.78
2017-05-24T10:38:20.354Z,17.87
2017-05-24T10:39:20.386Z,17.93
2017-05-24T10:40:20.402Z,18.2
2017-05-24T10:41:20.431Z,18.11
2017-05-24T10:42:19.847Z,18.11
2017-05-24T10:43:20.481Z,18.03
2017-05-24T10:44:20.508Z,18.05
2017-05-24T10:45:20.535Z,17.79
2017-05-24T10:46:20.557Z,17.81
2017-05-24T10:47:20.579Z,17.72
2017-05-24T10:50:20.355Z,17.23
2017-05-24T10:51:20.377Z,17.25
2017-05-24T10:52:35.020Z,17.03
2017-05-24T10:53:20.734Z,16.89
2017-05-24T10:54:20.456Z,16.91
2017-05-24T10:55:20.782Z,16.94
2017-05-24T10:56:20.505Z,17.04
2017-05-24T10:57:35.447Z,17.16
2017-05-24T10:58:20.553Z,17.16
2017-05-24T10:59:20.579Z,17.07
2017-05-24T11:00:20.908Z,16.81
2017-05-24T11:01:20.932Z,16.78
2017-05-24T11:02:20.958Z,16.66
2017-05-24T11:03:20.984Z,16.57
2017-05-24T11:04:20.710Z,16.53
2017-05-24T11:05:35.653Z,16.41
2017-05-24T11:07:21.083Z,16.43
2017-05-24T11:08:21.107Z,16.31
2017-05-24T11:09:20.840Z,16.31
2017-05-24T11:10:35.773Z,16.45
2017-05-24T11:11:21.185Z,16.38
2017-05-24T11:12:21.207Z,16.67
2017-05-24T11:13:35.848Z,16.66
2017-05-24T11:14:21.256Z,16.49
2017-05-24T11:15:21.279Z,16.57
2017-05-24T11:16:21.306Z,16.68
2017-05-24T11:17:21.331Z,16.66
2017-05-24T11:18:21.100Z,16.97
2017-05-24T11:19:21.379Z,17.16
2017-05-24T11:20:21.405Z,17.28
2017-05-24T11:21:21.433Z,17.23
2017-05-24T11:23:21.487Z,17.51
2017-05-24T11:24:21.206Z,17.59
2017-05-24T11:25:36.148Z,17.56
2017-05-24T11:26:21.555Z,17.37
2017-05-24T11:27:21.277Z,17.34
2017-05-24T11:28:21.306Z,17.22
2017-05-24T11:29:36.245Z,17.23
2017-05-24T11:30:21.349Z,17.21
2017-05-24T11:31:21.382Z,17.44
2017-05-24T11:32:21.704Z,17.63
2017-05-24T11:33:21.428Z,17.82
2017-05-24T11:34:21.452Z,17.92
2017-05-24T11:35:21.477Z,17.89
2017-05-24T11:36:21.804Z,18.08
2017-05-24T11:37:21.529Z,18.48
2017-05-24T11:38:21.856Z,18.78
2017-05-24T11:39:21.881Z,18.95
2017-05-24T11:40:21.297Z,18.9
2017-05-24T11:41:21.930Z,18.88
2017-05-24T11:42:21.651Z,18.55
2017-05-24T11:43:21.981Z,18.42
2017-05-24T11:44:21.401Z,18.69
2017-05-24T11:45:36.650Z,18.48
2017-05-24T11:46:22.082Z,18.73
2017-05-24T11:47:22.082Z,18.8
2017-05-24T11:48:21.855Z,19.06
2017-05-24T11:49:21.527Z,19.08
2017-05-24T11:50:21.857Z,19.61
2017-05-24T11:51:21.939Z,19.77
2017-05-24T11:52:21.907Z,19.54
2017-05-24T11:53:21.934Z,19.36
2017-05-24T11:54:22.269Z,19.31
2017-05-24T11:55:22.290Z,19.46
2017-05-24T11:56:22.011Z,19.13
2017-05-24T11:57:36.957Z,18.85
2017-05-24T11:58:22.372Z,19.18
2017-05-24T11:59:22.089Z,19.1
2017-05-24T12:00:37.035Z,19
2017-05-24T12:01:22.446Z,19.11
2017-05-24T12:02:22.166Z,19.33
2017-05-24T12:03:22.497Z,19.36
2017-05-24T12:04:22.522Z,19.48
2017-05-24T12:05:22.549Z,19.63
2017-05-24T12:06:22.576Z,19.76
2017-05-24T12:07:22.297Z,19.71
2017-05-24T12:08:22.631Z,19.76
2017-05-24T12:10:22.371Z,19.74
2017-05-24T12:11:22.702Z,19.59
2017-05-24T12:12:22.729Z,19.33
2017-05-24T12:13:22.448Z,19.31
2017-05-24T12:14:22.778Z,19.37
2017-05-24T12:15:22.803Z,19.59
2017-05-24T12:16:22.828Z,19.65
2017-05-24T12:17:22.859Z,19.62
2017-05-24T12:18:22.881Z,19.56
2017-05-24T12:20:22.998Z,19.47
2017-05-24T12:21:22.962Z,19.58
2017-05-24T12:22:22.989Z,19.78
2017-05-24T12:23:23.013Z,19.59
2017-05-24T12:24:23.050Z,19.65
2017-05-24T12:25:23.063Z,19.68
2017-05-24T12:26:23.090Z,19.39
2017-05-24T12:27:23.115Z,19.28
2017-05-24T12:28:37.758Z,19.51
2017-05-24T12:29:23.170Z,19.73
2017-05-24T12:30:22.890Z,19.76
2017-05-24T12:31:23.224Z,19.91
2017-05-24T12:32:37.911Z,20.1
2017-05-24T12:33:23.271Z,20.23
2017-05-24T12:34:23.296Z,20.16
2017-05-24T12:36:23.350Z,20.33
2017-05-24T12:37:23.080Z,20.26
2017-05-24T12:40:22.849Z,20.41
2017-05-24T12:41:23.177Z,20.48
2017-05-24T12:42:23.202Z,20.23
2017-05-24T12:43:37.846Z,19.99
2017-05-24T12:44:23.259Z,20.08
2017-05-24T12:45:23.282Z,20.2
2017-05-24T12:46:23.611Z,20.38
2017-05-24T12:47:23.332Z,20.17
2017-05-24T12:48:37.978Z,19.87
2017-05-24T12:49:23.692Z,19.87
2017-05-24T12:50:23.719Z,20.06
2017-05-24T12:51:23.744Z,19.95
2017-05-24T12:52:23.767Z,19.83
2017-05-24T12:53:23.799Z,19.77
2017-05-24T12:54:23.817Z,19.71
2017-05-24T12:55:23.845Z,19.58
2017-05-24T12:57:23.901Z,19.14
2017-05-24T12:58:23.924Z,18.92
2017-05-24T12:59:38.264Z,19.06
2017-05-24T13:00:23.673Z,18.91
2017-05-24T13:01:24.002Z,18.98
2017-05-24T13:02:23.724Z,18.84
2017-05-24T13:03:23.448Z,18.63
2017-05-24T13:04:38.698Z,18.32
2017-05-24T13:05:23.802Z,18.27
2017-05-24T13:06:23.829Z,18.26
2017-05-24T13:07:23.853Z,18.14
2017-05-24T13:08:24.485Z,18.23
2017-05-24T13:09:24.208Z,18.48
2017-05-24T13:10:24.237Z,18.58
2017-05-24T13:12:24.282Z,18.76
2017-05-24T13:13:24.311Z,18.94
2017-05-24T13:14:24.337Z,18.87
2017-05-24T13:15:24.360Z,18.87
2017-05-24T13:16:24.385Z,18.55
2017-05-24T13:17:24.412Z,18.36
2017-05-24T13:18:24.439Z,18.37
2017-05-24T13:19:24.464Z,18.54
2017-05-24T13:20:39.105Z,18.35
2017-05-24T13:21:24.514Z,18.2
2017-05-24T13:22:24.541Z,17.92
2017-05-24T13:23:24.263Z,17.86
2017-05-24T13:24:24.287Z,17.9
2017-05-24T13:25:24.614Z,17.68
2017-05-24T13:26:24.339Z,17.71
2017-05-24T13:27:24.362Z,17.71
2017-05-24T13:28:24.696Z,17.63
2017-05-24T13:29:24.724Z,17.71
2017-05-24T13:30:24.439Z,17.68
2017-05-24T13:31:24.767Z,17.79
2017-05-24T13:32:39.410Z,17.96
2017-05-24T13:33:24.821Z,18.18
2017-05-24T13:34:24.542Z,18.03
2017-05-24T13:35:39.487Z,18.15
2017-05-24T13:36:24.591Z,18.29
2017-05-24T13:37:24.920Z,18.17
2017-05-24T13:38:24.946Z,17.95
2017-05-24T13:39:24.978Z,17.95
2017-05-24T13:40:24.995Z,18.07
2017-05-24T13:41:39.644Z,18.17
2017-05-24T13:42:25.046Z,18.26
2017-05-24T13:43:24.786Z,18.35
2017-05-24T13:44:39.413Z,18.42
2017-05-24T13:45:39.436Z,18.27
2017-05-24T13:46:25.145Z,18.29
2017-05-24T13:47:25.175Z,18.03
2017-05-24T13:48:25.200Z,18.18
2017-05-24T13:49:24.923Z,18.25
2017-05-24T13:50:25.249Z,18.23
2017-05-24T13:51:25.274Z,18.14
2017-05-24T13:52:24.999Z,18.25
2017-05-24T13:53:25.324Z,18.29
2017-05-24T13:54:25.353Z,18.27
2017-05-24T13:55:25.376Z,18.36